Stations météo

Publicité
Chamonix, France (7469): Température de l'air & dewpoint: 07.12.2018 11:00:00 - 13.12.2018 11:00:00 (CET)Chamonix, France (7469): Vitesse du vent & gusts: 07.12.2018 11:00:00 - 13.12.2018 11:00:00 (CET)Chamonix, France (7469): Direction du vent: 07.12.2018 11:00:00 - 13.12.2018 11:00:00 (CET)Chamonix, France (7469): Quantités de précipitations: 07.12.2018 11:00:00 - 13.12.2018 11:00:00 (CET)
Date & Time tt [°C] td [°C] ff [km/h] ff [knt] fx [km/h] fx [knt] dd rr [mm]
13.12.2018 11:00:00 -3,5 -9,5 5 3 21 11 ENE 0,0
13.12.2018 10:00:00 -5,3 -7,1 4 2 15 8 ENE 0,0
13.12.2018 09:00:00 -6,8 -7,6 0 0 4 2 N 0,0
13.12.2018 08:00:00 -7,9 -8,8 2 1 5 3 SSE 0,0
13.12.2018 07:00:00 -9,6 -10,7 0 0 5 3 N -
13.12.2018 06:00:00 -9,7 -10,8 0 0 8 4 N 0,0
13.12.2018 05:00:00 -10,2 -11,4 0 0 4 2 N 0,0
13.12.2018 04:00:00 -10,4 -11,6 0 0 4 2 N 0,0
13.12.2018 03:00:00 -10,3 -11,5 0 0 4 2 N 0,0
13.12.2018 02:00:00 -10,2 -11,4 0 0 2 1 N 0,0
13.12.2018 01:00:00 -9,9 -11,1 0 0 2 1 N -
13.12.2018 00:00:00 -9,8 -11,0 0 0 2 1 N 0,0
12.12.2018 23:00:00 -9,3 -10,4 0 0 4 2 N 0,0
12.12.2018 22:00:00 -8,9 -10,0 0 0 4 2 N 0,0
12.12.2018 21:00:00 -8,3 -9,4 0 0 2 1 N 0,0
12.12.2018 20:00:00 -7,6 -8,7 0 0 4 2 N 0,0
12.12.2018 19:00:00 -7,0 -8,1 0 0 4 2 N -
12.12.2018 18:00:00 -6,0 -7,4 2 1 4 2 N 0,0
12.12.2018 17:00:00 -4,6 -7,5 0 0 4 2 N 0,0
12.12.2018 16:00:00 -2,6 -9,7 2 1 8 4 S 0,0
12.12.2018 15:00:00 -2,2 -8,5 4 2 8 4 SSW 0,0
12.12.2018 14:00:00 -1,3 -5,9 4 2 8 4 S 0,0
12.12.2018 13:00:00 -3,0 -3,8 0 0 4 2 N -
12.12.2018 12:00:00 -7,5 -8,4 0 0 4 2 N 0,0
12.12.2018 11:00:00 -7,8 -8,7 0 0 2 1 N 0,0
12.12.2018 10:00:00 -8,2 -9,1 0 0 4 2 N 0,0
12.12.2018 09:00:00 -8,6 -9,5 0 0 5 3 N 0,0
12.12.2018 08:00:00 -8,7 -9,6 2 1 4 2 ENE 0,0
12.12.2018 07:00:00 -8,6 -9,7 0 0 2 1 N -
12.12.2018 06:00:00 -8,4 -9,5 0 0 2 1 N 0,0
12.12.2018 05:00:00 -8,0 -8,9 0 0 4 2 N 0,0
12.12.2018 04:00:00 -8,0 -8,9 0 0 4 2 N 0,0
12.12.2018 03:00:00 -7,5 -8,4 0 0 4 2 N 0,0
12.12.2018 02:00:00 -7,2 -8,1 0 0 8 4 N 0,0
12.12.2018 01:00:00 -6,7 -7,6 0 0 8 4 N -
12.12.2018 00:00:00 -6,2 -7,1 0 0 9 5 N 0,0
11.12.2018 23:00:00 -5,7 -6,7 2 1 8 4 N 0,0
11.12.2018 22:00:00 -5,2 -6,2 2 1 8 4 NNE 0,0
11.12.2018 21:00:00 -4,5 -5,5 0 0 4 2 N 0,0
11.12.2018 20:00:00 -3,7 -4,7 2 1 8 4 NE 0,0
11.12.2018 19:00:00 -3,0 -3,7 0 0 4 2 N -
11.12.2018 18:00:00 -2,0 -3,0 0 0 4 2 N 0,0
11.12.2018 17:00:00 -0,9 -2,3 0 0 4 2 N 0,0
11.12.2018 16:00:00 0,6 -3,5 0 0 11 6 N 0,0
11.12.2018 15:00:00 1,1 -2,0 2 1 8 4 ESE 0,0
11.12.2018 14:00:00 1,2 -3,7 2 1 8 4 SSW 0,0
11.12.2018 13:00:00 1,0 -1,2 4 2 5 3 ESE -
11.12.2018 12:00:00 -2,7 -3,4 0 0 4 2 N 0,0
11.12.2018 11:00:00 -2,8 -3,6 0 0 4 2 N 0,0
11.12.2018 10:00:00 -2,6 -3,6 0 0 8 4 N 0,0
11.12.2018 09:00:00 -1,9 -3,2 4 2 11 6 NE 0,0
11.12.2018 08:00:00 -1,2 -1,9 2 1 9 5 NNE 0,0
11.12.2018 07:00:00 -0,6 -1,0 0 0 4 2 N -
11.12.2018 06:00:00 -0,7 -1,1 0 0 4 2 N 0,0
11.12.2018 05:00:00 0,0 -0,4 0 0 4 2 N 0,0
11.12.2018 04:00:00 0,0 -0,4 2 1 8 4 SW 0,0
11.12.2018 03:00:00 0,1 -0,3 0 0 18 10 N 0,0
11.12.2018 02:00:00 0,2 -0,2 2 1 13 7 S 0,0
11.12.2018 01:00:00 0,3 -0,1 0 0 11 6 N -
11.12.2018 00:00:00 0,3 0,0 2 1 13 7 WSW 0,0
10.12.2018 23:00:00 0,2 -0,2 2 1 8 4 W 0,0
10.12.2018 22:00:00 0,1 -0,3 0 0 8 4 N 0,2
10.12.2018 21:00:00 0,5 -0,1 0 0 8 4 N 0,0
10.12.2018 20:00:00 0,5 0,1 5 3 15 8 WSW 0,2
10.12.2018 19:00:00 0,5 0,1 4 2 16 9 S -
10.12.2018 18:00:00 0,7 0,1 4 2 21 11 SSW 0,0
10.12.2018 17:00:00 0,8 0,2 4 2 9 5 S 0,2
10.12.2018 16:00:00 1,2 0,2 8 4 26 14 SW 0,0
10.12.2018 15:00:00 1,6 0,4 5 3 28 15 SW 0,0
10.12.2018 14:00:00 2,1 0,5 11 6 24 13 SSW 0,0
10.12.2018 13:00:00 1,7 0,4 5 3 24 13 SW -
10.12.2018 12:00:00 1,7 0,2 8 4 28 15 SW 0,2
10.12.2018 11:00:00 1,1 0,4 9 5 22 12 SSW 0,2
10.12.2018 10:00:00 1,2 -0,1 8 4 28 15 SW 0,0
10.12.2018 09:00:00 1,5 -0,1 8 4 28 15 SW 0,0
10.12.2018 08:00:00 0,8 0,4 5 3 13 7 WSW 0,4
10.12.2018 07:00:00 0,6 -0,1 2 1 16 9 N -
10.12.2018 06:00:00 1,1 -0,2 8 4 24 13 SSW 0,0
10.12.2018 05:00:00 1,3 0,3 4 2 24 13 SW 0,0
10.12.2018 04:00:00 1,1 0,5 5 3 22 12 SSW 0,8
10.12.2018 03:00:00 1,1 0,5 8 4 16 9 SSW 1,0
10.12.2018 02:00:00 1,4 0,7 4 2 16 9 NNE 0,0
10.12.2018 01:00:00 1,8 0,6 15 8 26 14 W -
10.12.2018 00:00:00 2,2 1,0 9 5 34 18 SW 0,8
09.12.2018 23:00:00 1,2 0,8 4 2 21 11 SW 1,0
09.12.2018 22:00:00 1,5 0,5 11 6 26 14 WSW 1,0
09.12.2018 21:00:00 1,3 0,6 5 3 29 16 SSW 1,0
09.12.2018 20:00:00 1,1 0,5 8 4 26 14 SW 2,0
09.12.2018 19:00:00 1,6 0,4 11 6 29 16 SW -
09.12.2018 18:00:00 1,3 0,6 11 6 34 18 SW 0,4
09.12.2018 17:00:00 1,4 0,5 11 6 35 19 SSW 1,0
09.12.2018 16:00:00 2,0 0,5 5 3 28 15 SSW 0,2
09.12.2018 15:00:00 1,9 0,4 9 5 24 13 SW 0,2
09.12.2018 14:00:00 2,2 0,7 8 4 42 23 SW 0,2
09.12.2018 13:00:00 2,1 0,3 13 7 44 24 S -
09.12.2018 12:00:00 2,9 1,1 11 6 44 24 S 0,8
09.12.2018 11:00:00 3,2 2,0 15 8 42 23 S 2,0
09.12.2018 10:00:00 3,2 1,6 11 6 34 18 S 0,2
09.12.2018 09:00:00 3,4 1,8 11 6 55 30 SW 2,0
09.12.2018 08:00:00 3,9 2,6 11 6 34 18 SSW 1,0
09.12.2018 07:00:00 4,2 2,9 11 6 48 26 SSW -
09.12.2018 06:00:00 3,8 3,7 11 6 41 22 S 0,8
09.12.2018 05:00:00 2,1 2,0 2 1 13 7 ESE 0,2
09.12.2018 04:00:00 1,4 1,3 5 3 13 7 NNE 0,2
09.12.2018 03:00:00 1,2 1,1 4 2 8 4 N 0,2
09.12.2018 02:00:00 1,1 0,8 2 1 5 3 NNW 0,0
09.12.2018 01:00:00 1,1 0,8 0 0 15 8 N -
09.12.2018 00:00:00 0,9 0,6 5 3 13 7 NE 0,4
08.12.2018 23:00:00 0,8 0,5 2 1 15 8 ESE 0,4
08.12.2018 22:00:00 0,7 0,4 4 2 8 4 NW 0,2
08.12.2018 21:00:00 0,7 0,4 2 1 8 4 ESE 0,2
08.12.2018 20:00:00 0,6 0,2 0 0 8 4 N 0,4
08.12.2018 19:00:00 1,1 0,7 2 1 9 5 W -
08.12.2018 18:00:00 0,9 0,3 2 1 8 4 NE 0,0
08.12.2018 17:00:00 1,1 0,4 2 1 8 4 WNW 0,0
08.12.2018 16:00:00 1,4 0,5 0 0 11 6 N 0,2
08.12.2018 15:00:00 1,6 0,1 2 1 9 5 SSW 0,0
08.12.2018 14:00:00 1,7 0,4 2 1 8 4 NNE 0,0
08.12.2018 13:00:00 1,5 0,0 8 4 13 7 WSW -
08.12.2018 12:00:00 1,2 0,0 2 1 15 8 SW 0,2
08.12.2018 11:00:00 0,7 -0,3 2 1 11 6 SSE 0,0
08.12.2018 10:00:00 0,3 -1,0 4 2 15 8 SW 0,0
08.12.2018 09:00:00 0,4 -0,9 5 3 16 9 WSW 0,0
08.12.2018 08:00:00 0,5 -0,5 4 2 9 5 W 0,0
08.12.2018 07:00:00 0,2 -0,4 0 0 4 2 N -
08.12.2018 06:00:00 0,5 -0,5 2 1 11 6 NE 0,0
08.12.2018 05:00:00 1,1 -0,8 8 4 16 9 SSW 0,2
08.12.2018 04:00:00 1,4 -0,5 9 5 18 10 SW 0,2
08.12.2018 03:00:00 1,3 0,1 8 4 22 12 S 0,0
08.12.2018 02:00:00 1,5 0,6 8 4 22 12 SW 0,0
08.12.2018 01:00:00 1,9 0,6 9 5 50 27 S -
08.12.2018 00:00:00 3,0 1,2 9 5 35 19 SSW 2,0
07.12.2018 23:00:00 3,9 3,2 16 9 44 24 S 3,0
07.12.2018 22:00:00 4,5 4,2 0 0 8 4 N 1,0
07.12.2018 21:00:00 4,6 4,3 0 0 8 4 N 1,0
07.12.2018 20:00:00 4,5 4,2 0 0 13 7 N 0,4
07.12.2018 19:00:00 4,1 3,7 2 1 9 5 S -
07.12.2018 18:00:00 4,0 3,6 2 1 8 4 ESE 0,0
07.12.2018 17:00:00 3,8 2,6 2 1 11 6 N 0,0
07.12.2018 16:00:00 7,0 4,3 5 3 9 5 SSW 0,0
07.12.2018 15:00:00 5,8 4,6 2 1 5 3 E 0,0
07.12.2018 14:00:00 7,9 4,5 4 2 9 5 SW 0,0
07.12.2018 13:00:00 6,3 6,2 4 2 9 5 SE -
07.12.2018 12:00:00 3,3 3,2 0 0 4 2 N 0,0
07.12.2018 11:00:00 4,1 4,0 0 0 5 3 N 0,0

tt = Température de l'air
td = dewpoint
ff = Vitesse du vent
fx = gusts
dd = Direction du vent
rr = Quantités de précipitations

stations d'obs. à proximité